首页
METAR-TAF:

METAR-TAF

机场 :

斯特拉斯堡国际机场

斯特拉斯堡, 法国

纬度: 48-33N, 经度: 007-38E, 海拔: 153米

当前天气观测

该预报发布于46分钟前的15:00 UTC
风速22节,风向西南
温度 16°C
湿度 68%
气压 1000 hPa
能见度10公里或以上
散云层高于3800英尺
多云层高于4500英尺
阴天层高于5400英尺

METAR: LFST 051500Z AUTO 22022KT 9999 SCT038 BKN045 OVC054 16/10 Q1000 TEMPO 23017G32KT FEW035TCU

时间: 17:46 (15:46 UTC)

预报

该预报发布于4小时和46分钟前的11:00 UTC
预报有效从05日的 12点(UTC)到 06日的 12点(UTC)
风速11节,风向西南
能见度10公里或以上
少量云层高于2500英尺
多云层高于5000英尺
几率 40% :
短暂存在
从 05日的 12点(UTC)到 05日的 18点(UTC)
风速17节,风向西南,有时为32节阵风
少量云层高于3500英尺, 塔状积云.
小阵雨
短暂存在
从 05日的 21点(UTC)到 05日的 24点(UTC)
能見度: 4000
多云层高于3000英尺
少量云层高于5000英尺, 塔状积云.
小雨
几率 30% :
短暂存在
从 05日的 21点(UTC)到 05日的 24点(UTC)
多云层高于500英尺
短暂存在
从 06日的 00点(UTC)到 06日的 12点(UTC)
多云层高于2000英尺
小雨

TAF: LFST 051100Z 0512/0612 23011KT 9999 FEW025 BKN050 PROB40 TEMPO 0512/0518 23017G32KT -SHRA FEW035TCU TEMPO 0521/0524 4000 -RA BKN030 FEW050TCU PROB30 TEMPO 0521/0524 BKN005 TEMPO 0600/0612 -RA BKN020

超过4000个机场的气象观测和天气预报(METAR&TAF报告)。

可查询的气象台以黄色和红色小点在地图上表示。

将鼠标移到小点上方,可查看气象台名称。

然后点击查看天气观测和预报。

如需切换地图:点击带黑十字的绿色按钮放大地图;点击带横线的绿色按钮缩小地图;或者点击绿色箭头查看邻近地区的地图。


METAR-TAF: